LIBDLGKO

Guest
Details From LIBD - Bari Palese Macchie
To LGKO - Kos
Flight Number -
Tags Generated
Created
Modified
Stats Distance 548 nm / 1,014 km
Max Altitude 0 ft / 0 m
Waypoints 3
Social Downloads 0
Likes 0
Share VATSIM

Download

Looking for another format? Having issues loading an existing format? Contact us
Advertisement - Login to hide

Notes

Generated

Route

LIBD KOS30 LGKO

ID Type Via Altitude Latitude Longitude Leg Dist Tot Dist Heading (true) Name
O LIBD APT - 0 ft / 0 m 41.13463˚ 16.74687˚ - 0 nm - -
KOS30 FIX - 0 ft / 0 m 36.97028˚ 26.76164˚ 529 nm 529 nm 115° / 121° -
O LGKO APT - 0 ft / 0 m 36.80364˚ 27.08364˚ 18 nm 547 nm 123° / 123° -

Altitude Profile

Advertisement - Login to hide

Weather


0- 5 10 15 20 25 30 35+ Temperature / ° C

Clouds and Precipitation
Forecast for 2017-12-19 00:00 UTC. Updated an hour ago

Ground ~20,000 ft ~40,000 ft Winds

LIBD

Details ICAO LIBD (BRI)
Name Bari Palese Macchie
Region Italy
Timezone Europe/Rome (UTC+1.0)
Stats Elevation 177 ft / 54 m (AMSL)
Location 41.137865° 16.758318°
Runways 1
Magnetic Variation 3.738° E

METAR

LIBD 182220Z 29012KT 8000 RA SCT020 SCT025CB 03/00 Q1023

Decode

TAF

TAF LIBD 181700Z 1818/1918 31014KT 9999 SCT030= TAF LIBP 181700Z 1818/1918 32012KT 9999 SCT030 TEMPO 1903/1906 SHRA

Decode

Departure Runways

ID Width Length Bearing (true) Bearing (mag) Surface Threshold Offset Overrun Length
07 148 ft / 45 m 9,262 ft / 2,823 m 69.39° 65.65° Asphalt 1,257 ft / 383 m 0 ft / 0 m
25 148 ft / 45 m 9,262 ft / 2,823 m 249.42° 245.68° Asphalt 0 ft / 0 m 194 ft / 59 m

LGKO

Details ICAO LGKO (KGS)
Name KOS
Region Greece
Timezone Europe/Athens (UTC+2.0)
Stats Elevation 412 ft / 126 m (AMSL)
Location 36.794403° 27.090764°
Runways 1
Magnetic Variation 4.724° E

METAR

LGKO 182220Z 24009KT 9999 FEW018TCU SCT025 12/08 Q1017

Decode

TAF

TAF LGKO 181700Z 1818/1918 25015KT 9999 FEW018 PROB40 TEMPO 1818/1903 5000 RA SCT010 BKN018 PROB30 TEMPO 1818/1824 4000 TSRA SCT008 FEW018CB BKN018 PROB40 TEMPO 1818/1824 25017G27KT BECMG 1904/1906 34013KT

Decode

Destination Runways

ID Width Length Bearing (true) Bearing (mag) Surface Threshold Offset Overrun Length
14 148 ft / 45 m 7,923 ft / 2,415 m 148.29° 143.57° Asphalt 0 ft / 0 m 240 ft / 73 m
32 148 ft / 45 m 7,923 ft / 2,415 m 328.30° 323.58° Asphalt 0 ft / 0 m 205 ft / 62 m

Popular Alternatives